Time;durP1;ratioP1;P1;durP2;ratioP2;P2;SDS_P1;SDS_P2;PMS_P1;PMS_P2;Temp;Humidity;BMP_temperature;BMP_pressure;BME280_temperature;BME280_humidity;BME280_pressure;Samples;Min_cycle;Max_cycle;Signal;HPM_P1;HPM_P2
2022/08/21 00:01:54;;;;;;;20.42;14.43;;;;;;;27.33;63.26;100663.53;5071950;28;20442;-82
2022/08/21 00:04:20;;;;;;;21.23;13.93;;;;;;;27.26;63.10;100640.41;5071147;28;20106;-82
2022/08/21 00:06:46;;;;;;;19.45;13.50;;;;;;;27.34;62.99;100656.38;5070555;28;20031;-82
2022/08/21 00:09:12;;;;;;;19.52;13.48;;;;;;;27.32;62.39;100648.34;5069620;28;20024;-82
2022/08/21 00:11:38;;;;;;;21.17;14.13;;;;;;;27.33;62.51;100641.22;5070026;28;20032;-82
2022/08/21 00:14:06;;;;;;;19.90;14.00;;;;;;;27.33;62.25;100651.94;5072250;28;20020;-83
2022/08/21 00:16:32;;;;;;;19.20;14.23;;;;;;;27.22;62.46;100625.31;5067779;28;20039;-82
2022/08/21 00:18:57;;;;;;;17.92;13.73;;;;;;;27.15;62.27;100612.88;5068713;28;20024;-83
2022/08/21 00:21:24;;;;;;;20.27;13.90;;;;;;;27.31;62.24;100632.31;5070196;28;20086;-83
2022/08/21 00:23:50;;;;;;;22.65;14.02;;;;;;;27.23;62.02;100624.38;5071238;28;20023;-82
2022/08/21 00:26:16;;;;;;;18.38;13.15;;;;;;;27.26;62.32;100627.00;5077217;28;20073;-84
2022/08/21 00:28:42;;;;;;;18.42;13.43;;;;;;;27.29;62.17;100635.00;5072379;28;20378;-83
2022/08/21 00:31:08;;;;;;;17.05;12.95;;;;;;;27.31;62.46;100626.94;5068909;28;20024;-83
2022/08/21 00:33:34;;;;;;;21.02;13.63;;;;;;;27.31;61.75;100637.66;5068104;28;20090;-83
2022/08/21 00:36:00;;;;;;;18.20;13.00;;;;;;;27.23;62.00;100621.69;5069902;28;20024;-83
2022/08/21 00:38:26;;;;;;;17.30;13.10;;;;;;;27.23;62.24;100612.78;5050953;28;20031;-83
2022/08/21 00:40:56;;;;;;;18.63;13.52;;;;;;;27.30;62.26;100615.31;5070607;28;20055;-83
2022/08/21 00:43:27;;;;;;;20.92;13.18;;;;;;;27.30;62.13;100611.75;5076567;28;20062;-82
2022/08/21 00:45:53;;;;;;;20.50;13.55;;;;;;;27.31;61.89;100616.22;5075519;28;20059;-82
2022/08/21 00:48:19;;;;;;;20.15;13.48;;;;;;;27.24;62.04;100602.00;5071637;28;20024;-83
2022/08/21 00:51:02;;;;;;;16.85;12.60;;;;;;;27.30;62.22;100611.75;5068733;28;20039;-82
2022/08/21 00:53:28;;;;;;;16.45;13.02;;;;;;;27.30;62.63;100607.25;5071333;28;20031;-83
2022/08/21 00:55:54;;;;;;;22.58;13.32;;;;;;;27.24;62.33;100599.31;5073724;28;20028;-82
2022/08/21 00:58:20;;;;;;;19.35;12.88;;;;;;;27.29;62.27;100615.34;5072997;28;20421;-82
2022/08/21 01:00:48;;;;;;;16.55;12.68;;;;;;;27.23;62.38;100602.94;5074248;28;20029;-83
2022/08/21 01:03:16;;;;;;;16.88;12.05;;;;;;;27.21;62.66;100594.00;5074465;28;20050;-83
2022/08/21 01:05:43;;;;;;;18.73;12.93;;;;;;;26.90;62.09;100545.38;5074396;28;20024;-83
2022/08/21 01:08:10;;;;;;;15.98;12.77;;;;;;;27.19;62.64;100595.81;5056196;28;20020;-83
2022/08/21 01:10:37;;;;;;;16.90;12.57;;;;;;;27.28;62.59;100614.44;5057990;28;20029;-82
2022/08/21 01:13:06;;;;;;;16.50;12.15;;;;;;;27.27;61.88;100615.38;5071162;28;20197;-82
2022/08/21 01:15:34;;;;;;;17.58;11.93;;;;;;;27.26;61.97;100608.22;5072924;28;20047;-83
2022/08/21 01:18:03;;;;;;;16.92;13.07;;;;;;;27.15;62.77;100594.97;5072526;28;20029;-82
2022/08/21 01:20:29;;;;;;;17.17;12.55;;;;;;;27.18;62.35;100596.75;5079989;28;20539;-82
2022/08/21 01:22:55;;;;;;;17.30;11.70;;;;;;;26.95;62.43;100557.81;5079104;28;20084;-81
2022/08/21 01:25:20;;;;;;;17.13;12.38;;;;;;;27.15;62.29;100588.72;5078872;28;20449;-83
2022/08/21 01:27:46;;;;;;;16.98;12.82;;;;;;;27.29;62.62;100620.72;5081069;28;20505;-83
2022/08/21 01:30:23;;;;;;;17.55;12.60;;;;;;;27.23;62.40;100612.78;5076120;28;20037;-82
2022/08/21 01:32:50;;;;;;;15.02;12.05;;;;;;;27.23;62.38;100624.38;5075253;28;20114;-82
2022/08/21 01:35:17;;;;;;;16.98;12.57;;;;;;;27.24;62.34;100619.88;5078846;28;20497;-83
2022/08/21 01:37:44;;;;;;;15.38;11.90;;;;;;;27.15;61.90;100596.78;5072845;28;20083;-82
2022/08/21 01:40:10;;;;;;;15.38;11.68;;;;;;;27.14;61.90;100603.06;5074183;28;20063;-83
2022/08/21 01:42:37;;;;;;;16.30;12.40;;;;;;;27.24;62.12;100612.72;5080337;28;20458;-82
2022/08/21 01:45:04;;;;;;;14.13;11.10;;;;;;;27.19;62.45;100603.84;5074748;28;20184;-82
2022/08/21 01:47:30;;;;;;;16.05;12.68;;;;;;;27.23;61.63;100608.28;5079637;28;20054;-83
2022/08/21 01:49:55;;;;;;;15.23;11.00;;;;;;;27.16;61.73;100591.41;5072280;28;20024;-82
2022/08/21 01:52:21;;;;;;;;;;;;;;;27.28;62.03;100600.16;5071996;28;20036;-82
2022/08/21 01:54:47;;;;;;;15.15;11.88;;;;;;;27.23;61.44;100602.06;5093417;28;19977;-82
2022/08/21 01:57:12;;;;;;;;;;;;;;;27.26;62.25;100604.66;5071938;28;20559;-83
2022/08/21 01:59:39;;;;;;;14.75;11.38;;;;;;;27.22;61.89;100601.19;5076862;28;19927;-83
2022/08/21 02:02:05;;;;;;;14.43;11.57;;;;;;;27.12;62.16;100578.06;5083382;28;20021;-83
2022/08/21 02:04:30;;;;;;;15.73;12.45;;;;;;;27.13;62.45;100586.06;5081758;28;20031;-83
2022/08/21 02:06:56;;;;;;;14.13;11.30;;;;;;;27.17;61.85;100590.47;5073720;28;20021;-83
2022/08/21 02:09:22;;;;;;;14.85;11.60;;;;;;;27.07;62.09;100583.50;5079455;28;20024;-83
2022/08/21 02:11:47;;;;;;;14.68;11.80;;;;;;;27.19;61.55;100599.38;5087883;28;20031;-82
2022/08/21 02:14:15;;;;;;;16.27;11.20;;;;;;;26.95;61.94;100555.13;5082042;28;20036;-84
2022/08/21 02:16:42;;;;;;;14.55;11.32;;;;;;;27.18;62.02;100599.41;5079098;28;20031;-82
2022/08/21 02:19:08;;;;;;;13.48;11.35;;;;;;;27.20;61.78;100608.31;5072600;28;20039;-83
2022/08/21 02:21:34;;;;;;;15.48;11.32;;;;;;;27.08;62.19;100587.97;5074706;28;20498;-83
2022/08/21 02:24:00;;;;;;;14.27;11.38;;;;;;;27.07;61.73;100596.91;5071413;28;20032;-84
2022/08/21 02:26:26;;;;;;;15.40;11.75;;;;;;;26.91;62.09;100569.47;5077290;28;20039;-84
2022/08/21 02:28:52;;;;;;;13.88;10.93;;;;;;;27.18;62.31;100602.97;5075596;28;20021;-83
2022/08/21 02:31:17;;;;;;;17.80;11.98;;;;;;;27.10;61.96;100598.66;5076160;28;20486;-83
2022/08/21 02:33:43;;;;;;;13.02;10.75;;;;;;;27.17;62.33;100611.91;5071584;28;20048;-84
2022/08/21 02:36:09;;;;;;;;;;;;;;;27.23;62.29;100610.09;5073065;28;20020;-84
2022/08/21 02:38:38;;;;;;;13.90;10.95;;;;;;;27.20;62.26;100619.06;5071001;28;19965;-83
2022/08/21 02:41:09;;;;;;;15.05;11.18;;;;;;;27.18;61.81;100618.19;5071514;28;20028;-83
2022/08/21 02:43:35;;;;;;;14.90;11.13;;;;;;;26.91;62.26;100573.97;5060779;28;20039;-82
2022/08/21 02:46:02;;;;;;;14.82;11.45;;;;;;;27.01;61.63;100581.81;5070452;28;20024;-83
2022/08/21 02:48:30;;;;;;;13.05;10.95;;;;;;;27.02;62.26;100574.66;5069316;28;20474;-84
2022/08/21 02:51:03;;;;;;;12.98;10.98;;;;;;;27.14;61.95;100611.09;5081969;28;20059;-83
2022/08/21 02:53:30;;;;;;;14.20;11.10;;;;;;;27.16;62.42;100614.66;5075336;28;20028;-83
2022/08/21 02:55:58;;;;;;;14.20;11.02;;;;;;;27.08;62.29;100600.47;5073105;28;20075;-83
2022/08/21 02:58:31;;;;;;;14.65;10.88;;;;;;;27.13;62.34;100618.25;5056659;28;20024;-85
2022/08/21 03:00:58;;;;;;;14.30;11.02;;;;;;;26.85;62.03;100560.66;5070867;28;20086;-84
2022/08/21 03:03:24;;;;;;;13.10;10.88;;;;;;;27.09;61.91;100607.59;5071499;28;20024;-85
2022/08/21 03:05:50;;;;;;;14.55;10.70;;;;;;;27.06;62.04;100604.97;5074704;28;20032;-84
2022/08/21 03:08:17;;;;;;;13.15;10.85;;;;;;;26.90;62.10;100586.50;5074413;28;20038;-84
2022/08/21 03:10:48;;;;;;;14.55;11.20;;;;;;;27.16;62.30;100626.25;5075999;28;20383;-84
2022/08/21 03:13:15;;;;;;;13.30;10.93;;;;;;;27.12;62.33;100626.34;5068403;28;20029;-84
2022/08/21 03:15:41;;;;;;;15.38;10.95;;;;;;;26.99;62.46;100610.44;5077040;28;20024;-83
2022/08/21 03:18:08;;;;;;;13.23;10.55;;;;;;;27.12;62.10;100634.38;5073249;28;20036;-84
2022/08/21 03:20:35;;;;;;;13.00;10.20;;;;;;;27.09;62.45;100626.38;5085116;28;20029;-84
2022/08/21 03:23:03;;;;;;;13.07;10.75;;;;;;;27.13;62.16;100633.44;5077069;28;20181;-83
2022/08/21 03:25:31;;;;;;;12.20;10.82;;;;;;;27.11;61.86;100636.16;5052462;28;20028;-83
2022/08/21 03:27:58;;;;;;;13.38;10.95;;;;;;;26.95;61.94;100615.88;5081269;28;20023;-83
2022/08/21 03:30:23;;;;;;;13.55;10.70;;;;;;;26.74;62.45;100585.84;5080874;28;20107;-83
2022/08/21 03:32:50;;;;;;;;;;;;;;;27.13;61.79;100644.16;5072084;28;20159;-83
2022/08/21 03:35:15;;;;;;;13.15;10.27;;;;;;;27.05;62.10;100636.28;5078482;28;19912;-83
2022/08/21 03:37:41;;;;;;;13.18;11.02;;;;;;;26.99;62.33;100631.00;5069423;28;20043;-83
2022/08/21 03:40:08;;;;;;;12.38;10.65;;;;;;;27.09;62.28;100648.69;5077249;28;20434;-83
2022/08/21 03:42:34;;;;;;;12.27;10.18;;;;;;;27.05;62.20;100648.75;5081732;28;20093;-83
2022/08/21 03:45:00;;;;;;;13.20;10.88;;;;;;;26.99;62.36;100634.56;5080221;28;20028;-83
2022/08/21 03:47:25;;;;;;;;;;;;;;;27.09;62.49;100653.16;5071738;28;20445;-82
2022/08/21 03:49:51;;;;;;;11.45;10.25;;;;;;;26.97;62.42;100636.38;5070766;28;19920;-84
2022/08/21 03:52:17;;;;;;;11.82;10.52;;;;;;;27.02;62.26;100650.56;5073495;28;20029;-84
2022/08/21 03:54:44;;;;;;;11.93;9.95;;;;;;;26.99;62.55;100639.94;5070624;28;20056;-83
2022/08/21 03:57:10;;;;;;;12.02;10.40;;;;;;;27.07;62.36;100645.13;5070047;28;20513;-83
2022/08/21 03:59:36;;;;;;;;;;;;;;;27.08;62.20;100640.69;5069555;28;20064;-83
2022/08/21 04:02:04;;;;;;;11.98;10.27;;;;;;;27.06;62.35;100637.16;5069755;28;19912;-83
2022/08/21 04:04:30;;;;;;;14.02;10.52;;;;;;;26.93;62.62;100613.22;5067765;28;20066;-83
2022/08/21 04:06:57;;;;;;;13.20;10.18;;;;;;;27.05;62.58;100638.03;5067679;28;20571;-83
2022/08/21 04:09:23;;;;;;;10.88;9.75;;;;;;;26.89;62.49;100611.50;5070723;28;20528;-84
2022/08/21 04:11:49;;;;;;;11.27;9.73;;;;;;;27.05;62.34;100649.66;5072973;28;20046;-83
2022/08/21 04:14:16;;;;;;;14.35;10.35;;;;;;;26.90;62.40;100615.06;5060878;28;20502;-83
2022/08/21 04:16:43;;;;;;;11.45;9.77;;;;;;;27.01;62.22;100632.75;5066571;28;20036;-83
2022/08/21 04:19:09;;;;;;;14.10;10.50;;;;;;;26.92;62.85;100621.28;5051053;28;20032;-83
2022/08/21 04:21:38;;;;;;;11.57;9.73;;;;;;;27.03;62.61;100640.78;5055148;28;20479;-83
2022/08/21 04:24:07;;;;;;;11.65;10.20;;;;;;;26.99;62.46;100623.84;5066695;28;20040;-83
2022/08/21 04:26:34;;;;;;;12.30;10.27;;;;;;;26.91;62.58;100607.00;5069969;28;20573;-84
2022/08/21 04:29:00;;;;;;;12.38;10.35;;;;;;;27.01;62.51;100623.81;5051410;28;20468;-82
2022/08/21 04:31:28;;;;;;;13.90;9.93;;;;;;;27.02;62.64;100630.94;5077394;28;20025;-82
2022/08/21 04:33:54;;;;;;;10.80;9.65;;;;;;;26.88;63.04;100612.41;5075241;28;20056;-82
2022/08/21 04:36:20;;;;;;;11.30;9.77;;;;;;;26.98;62.44;100626.53;5071495;28;20029;-83
2022/08/21 04:38:45;;;;;;;;;;;;;;;27.06;62.25;100632.66;5074144;28;20127;-82
2022/08/21 04:41:11;;;;;;;13.35;10.05;;;;;;;27.02;62.70;100622.91;5071630;28;19969;-82
2022/08/21 04:43:38;;;;;;;11.82;10.20;;;;;;;26.93;62.47;100607.84;5080746;28;20035;-81
2022/08/21 04:46:05;;;;;;;12.25;9.82;;;;;;;27.02;62.26;100618.41;5081900;28;20038;-81
2022/08/21 04:48:31;;;;;;;12.85;9.93;;;;;;;26.79;62.26;100578.59;5055357;28;20486;-82
2022/08/21 04:50:57;;;;;;;;;;;;;;;27.07;61.95;100621.00;5072357;28;20066;-81
2022/08/21 04:53:40;;;;;;;11.48;10.07;;;;;;;27.05;62.70;100624.63;5085879;28;20771;-82
2022/08/21 04:56:10;;;;;;;12.40;10.05;;;;;;;27.01;63.26;100627.38;5077309;28;20035;-81
2022/08/21 04:58:38;;;;;;;11.27;9.88;;;;;;;26.96;63.00;100615.84;5069945;28;20024;-82
2022/08/21 05:01:04;;;;;;;12.57;10.02;;;;;;;26.91;63.09;100609.69;5065492;28;20024;-82
2022/08/21 05:03:31;;;;;;;12.77;9.88;;;;;;;26.92;63.00;100607.88;5073470;28;20053;-83
2022/08/21 05:05:57;;;;;;;11.05;9.73;;;;;;;26.98;63.03;100621.19;5072988;28;20523;-83
2022/08/21 05:08:23;;;;;;;;;;;;;;;27.03;62.69;100616.66;5084576;28;20058;-82
2022/08/21 05:10:49;;;;;;;11.32;9.43;;;;;;;26.92;62.74;100608.75;5070894;28;20401;-82
2022/08/21 05:13:15;;;;;;;12.10;9.93;;;;;;;26.92;63.23;100610.56;5068196;28;20032;-83
2022/08/21 05:15:41;;;;;;;12.35;10.13;;;;;;;26.99;62.47;100623.84;5074606;28;20615;-82
2022/08/21 05:18:07;;;;;;;12.73;10.00;;;;;;;26.94;63.11;100609.63;5081799;28;20028;-82
2022/08/21 05:20:34;;;;;;;;;;;;;;;27.05;62.27;100613.91;5072422;28;20039;-81
2022/08/21 05:23:00;;;;;;;12.18;9.27;;;;;;;27.00;62.76;100611.31;5072906;28;20382;-81
2022/08/21 05:25:26;;;;;;;13.32;10.02;;;;;;;27.01;62.87;100618.47;5064358;28;20044;-81
2022/08/21 05:27:51;;;;;;;;;;;;;;;27.03;62.54;100613.97;5072379;28;20597;-80
2022/08/21 05:30:17;;;;;;;12.18;9.95;;;;;;;26.97;62.75;100603.34;5069107;28;19995;-82
2022/08/21 05:32:42;;;;;;;;;;;;;;;27.04;62.84;100610.38;5065860;28;20383;-81
2022/08/21 05:35:08;;;;;;;10.43;9.32;;;;;;;26.95;62.64;100598.00;5077391;28;19911;-81
2022/08/21 05:37:34;;;;;;;11.18;9.13;;;;;;;26.98;61.62;100607.78;5070187;28;20058;-81
2022/08/21 05:40:00;;;;;;;;;;;;;;;27.02;61.57;100601.47;5077972;28;20119;-82
2022/08/21 05:42:27;;;;;;;11.43;9.40;;;;;;;26.99;61.46;100607.75;5072231;28;19919;-82
2022/08/21 05:44:53;;;;;;;10.50;9.43;;;;;;;26.99;62.00;100609.56;5065815;28;20498;-81
2022/08/21 05:47:18;;;;;;;;;;;;;;;27.03;61.49;100619.31;5072324;28;20028;-80
2022/08/21 05:49:44;;;;;;;10.63;9.23;;;;;;;26.96;62.34;100607.78;5071402;28;20334;-82
2022/08/21 05:52:10;;;;;;;11.27;9.50;;;;;;;26.91;62.05;100596.28;5073595;28;20029;-82
2022/08/21 05:54:37;;;;;;;10.93;9.60;;;;;;;26.92;62.20;100599.84;5071280;28;20032;-83
2022/08/21 05:57:03;;;;;;;10.70;9.52;;;;;;;26.94;62.27;100604.25;5084337;28;20024;-80
2022/08/21 05:59:28;;;;;;;;;;;;;;;27.04;62.08;100621.09;5086434;28;20024;-79
2022/08/21 06:01:54;;;;;;;11.02;9.68;;;;;;;27.01;62.30;100621.16;5076096;28;20309;-81
2022/08/21 06:04:20;;;;;;;10.45;9.40;;;;;;;26.99;62.91;100612.25;5076571;28;20025;-81
2022/08/21 06:06:48;;;;;;;10.13;9.13;;;;;;;26.71;62.51;100560.88;5072287;28;20035;-82
2022/08/21 06:09:14;;;;;;;9.52;8.63;;;;;;;27.00;62.94;100614.88;5075184;28;20024;-82
2022/08/21 06:11:39;;;;;;;;;;;;;;;27.04;62.07;100613.03;5070090;28;20028;-81
2022/08/21 06:14:06;;;;;;;10.20;8.98;;;;;;;26.97;62.41;100612.25;5071895;28;19912;-81
2022/08/21 06:16:32;;;;;;;9.95;8.95;;;;;;;27.00;62.71;100616.69;5072965;28;20033;-82
2022/08/21 06:18:57;;;;;;;;;;;;;;;27.05;62.49;100619.28;5067364;28;20047;-82
2022/08/21 06:21:23;;;;;;;11.00;9.82;;;;;;;26.96;62.55;100607.78;5076583;28;20078;-82
2022/08/21 06:23:50;;;;;;;9.95;8.95;;;;;;;26.99;62.70;100618.47;5077346;28;20089;-81
2022/08/21 06:26:16;;;;;;;10.25;9.25;;;;;;;26.98;62.78;100621.19;5074457;28;20039;-82
2022/08/21 06:28:42;;;;;;;;;;;;;;;27.05;62.42;100622.88;5073502;28;20028;-81
2022/08/21 06:31:27;;;;;;;10.10;9.00;;;;;;;26.98;62.59;100622.06;5079079;28;19912;-80
2022/08/21 06:33:53;;;;;;;9.88;8.88;;;;;;;26.99;62.97;100622.97;5070192;28;20056;-80
2022/08/21 06:36:20;;;;;;;10.60;9.10;;;;;;;26.96;62.94;100612.28;5079231;28;20028;-80
2022/08/21 06:38:46;;;;;;;9.65;8.55;;;;;;;26.95;62.59;100614.06;5077059;28;20401;-83
2022/08/21 06:41:12;;;;;;;;;;;;;;;27.04;62.34;100626.44;5075845;28;20028;-79
2022/08/21 06:43:37;;;;;;;11.30;9.20;;;;;;;27.01;62.91;100622.03;5073707;28;20308;-80
2022/08/21 06:46:03;;;;;;;10.27;9.23;;;;;;;27.00;63.16;100635.44;5069825;28;20066;-81
2022/08/21 06:48:31;;;;;;;9.82;8.75;;;;;;;26.96;63.25;100621.19;5066884;28;20122;-80
2022/08/21 06:50:59;;;;;;;9.52;8.52;;;;;;;26.95;63.22;100621.25;5065081;28;20552;-81
2022/08/21 06:53:25;;;;;;;10.07;8.95;;;;;;;26.94;63.25;100628.38;5069905;28;20024;-79
2022/08/21 06:55:51;;;;;;;9.38;8.13;;;;;;;26.85;63.41;100614.25;5074593;28;20043;-80
2022/08/21 06:58:16;;;;;;;;;;;;;;;26.90;63.17;100621.31;5065656;28;20035;-80
2022/08/21 07:00:45;;;;;;;9.30;8.20;;;;;;;26.84;63.37;100616.06;5070148;28;20336;-81
2022/08/21 07:03:39;;;;;;;10.02;8.38;;;;;;;26.88;63.62;100620.47;5069657;28;20115;-81
2022/08/21 07:06:06;;;;;;;9.38;8.48;;;;;;;26.89;63.35;100621.34;5055652;28;20119;-81
2022/08/21 07:08:31;;;;;;;9.45;8.20;;;;;;;26.83;63.12;100613.38;5069842;28;20059;-81
2022/08/21 07:10:59;;;;;;;9.07;8.18;;;;;;;26.89;63.04;100615.97;5069743;28;20127;-81
2022/08/21 07:13:25;;;;;;;9.65;8.10;;;;;;;26.91;63.00;100616.84;5063746;28;20032;-80
2022/08/21 07:15:51;;;;;;;8.90;8.00;;;;;;;26.93;62.11;100617.69;5068723;28;20460;-80
2022/08/21 07:18:17;;;;;;;8.38;7.57;;;;;;;26.84;61.87;100604.44;5066778;28;20024;-81
2022/08/21 07:20:43;;;;;;;8.77;7.70;;;;;;;26.89;62.25;100613.28;5067877;28;20463;-81
2022/08/21 07:23:12;;;;;;;9.20;8.30;;;;;;;26.87;62.83;100604.41;5067864;28;20024;-80
2022/08/21 07:25:38;;;;;;;8.77;7.88;;;;;;;26.67;62.14;100576.13;5041718;28;20024;-82
2022/08/21 07:28:04;;;;;;;8.95;8.05;;;;;;;26.91;61.93;100609.69;5069006;28;20031;-80
2022/08/21 07:30:30;;;;;;;8.68;7.80;;;;;;;26.92;62.01;100607.88;5069792;28;20032;-81
2022/08/21 07:32:56;;;;;;;8.95;8.05;;;;;;;26.80;61.87;100593.78;5051161;28;20068;-81
2022/08/21 07:35:22;;;;;;;9.15;8.13;;;;;;;26.95;62.32;100607.84;5068153;28;20025;-80
2022/08/21 07:37:48;;;;;;;8.77;7.93;;;;;;;26.74;62.50;100580.47;5068897;28;20036;-79
2022/08/21 07:40:18;;;;;;;9.40;8.05;;;;;;;26.89;61.94;100600.78;5069100;28;20421;-80
2022/08/21 07:42:46;;;;;;;9.07;8.18;;;;;;;26.93;62.53;100604.31;5070035;28;20466;-79
2022/08/21 07:45:13;;;;;;;9.57;8.48;;;;;;;26.91;62.07;100601.63;5070860;28;20417;-80
2022/08/21 07:47:38;;;;;;;8.93;7.88;;;;;;;26.90;62.18;100588.25;5075949;28;20097;-81
2022/08/21 07:50:06;;;;;;;9.52;7.82;;;;;;;26.93;62.13;100597.13;5077897;28;20029;-81
2022/08/21 07:52:32;;;;;;;8.73;7.82;;;;;;;26.90;62.33;100590.94;5062211;28;20426;-80
2022/08/21 07:54:58;;;;;;;9.15;7.90;;;;;;;26.97;62.11;100596.19;5065443;28;20040;-79
2022/08/21 07:57:23;;;;;;;;;;;;;;;26.99;61.76;100594.38;5081658;28;20628;-80
2022/08/21 07:59:49;;;;;;;8.80;7.90;;;;;;;26.97;62.16;100595.31;5073360;28;19919;-79
2022/08/21 08:02:25;;;;;;;9.63;7.88;;;;;;;26.92;62.17;100581.06;5075045;28;20378;-79
2022/08/21 08:04:51;;;;;;;9.18;8.25;;;;;;;26.91;62.28;100576.66;5078001;28;20031;-79
2022/08/21 08:07:17;;;;;;;9.25;8.35;;;;;;;26.94;61.95;100577.47;5070028;28;20032;-79
2022/08/21 08:09:44;;;;;;;8.77;7.88;;;;;;;27.00;61.78;100588.06;5074312;28;20035;-79
2022/08/21 08:12:10;;;;;;;9.15;8.20;;;;;;;26.99;62.20;100578.28;5070390;28;20024;-80
2022/08/21 08:14:36;;;;;;;9.30;8.40;;;;;;;27.12;62.51;100581.63;5070956;28;20024;-83
2022/08/21 08:17:02;;;;;;;17.15;10.25;;;;;;;27.23;65.73;100576.13;5067866;28;20041;-82
2022/08/21 08:19:28;;;;;;;13.25;10.93;;;;;;;27.17;65.45;100577.06;5069547;28;20041;-80
2022/08/21 08:21:54;;;;;;;11.32;9.75;;;;;;;27.04;64.66;100574.66;5076915;28;20127;-80
2022/08/21 08:24:20;;;;;;;12.25;10.32;;;;;;;26.96;64.41;100561.34;5069111;28;20108;-79
2022/08/21 08:26:47;;;;;;;11.82;9.75;;;;;;;27.00;64.52;100585.41;5084712;28;20074;-79
2022/08/21 08:29:12;;;;;;;10.57;9.48;;;;;;;26.96;64.43;100578.31;5071147;28;20024;-80
2022/08/21 08:31:38;;;;;;;12.32;10.10;;;;;;;27.01;65.23;100584.50;5069824;28;20464;-80
2022/08/21 08:34:03;;;;;;;;;;;;;;;27.02;65.05;100582.69;5069799;28;20071;-80
2022/08/21 08:36:35;;;;;;;10.32;9.20;;;;;;;27.01;64.91;100576.47;5070196;28;19988;-79
2022/08/21 08:39:01;;;;;;;10.85;9.10;;;;;;;27.01;64.68;100580.94;5067557;28;20112;-80
2022/08/21 08:41:27;;;;;;;10.88;9.75;;;;;;;27.00;64.50;100573.81;5054688;28;20060;-80
2022/08/21 08:43:54;;;;;;;10.65;9.02;;;;;;;27.02;64.23;100583.56;5064394;28;20051;-80
2022/08/21 08:46:31;;;;;;;10.50;9.40;;;;;;;26.96;64.54;100556.88;5069154;28;20454;-79
2022/08/21 08:49:02;;;;;;;12.38;9.48;;;;;;;27.06;64.49;100575.50;5061871;28;20043;-80
2022/08/21 08:51:48;;;;;;;10.27;9.27;;;;;;;27.06;64.79;100572.81;5075983;28;20039;-81
2022/08/21 08:54:19;;;;;;;10.38;9.25;;;;;;;27.02;64.75;100559.44;5070681;28;20020;-80
2022/08/21 08:56:45;;;;;;;13.02;9.52;;;;;;;27.22;65.85;100563.63;5077783;28;20108;-82
2022/08/21 08:59:27;;;;;;;12.25;10.70;;;;;;;27.21;68.22;100541.25;5051969;28;20387;-81
2022/08/21 09:01:52;;;;;;;15.15;11.23;;;;;;;27.27;69.56;100545.66;5067532;28;20063;-81
2022/08/21 09:04:27;;;;;;;15.43;10.88;;;;;;;27.31;69.44;100544.69;5067183;28;20048;-83
2022/08/21 09:07:06;;;;;;;13.63;10.88;;;;;;;27.44;69.00;100555.19;5068410;28;20029;-82
2022/08/21 09:09:53;;;;;;;13.50;10.63;;;;;;;27.40;69.09;100549.00;5072849;28;20397;-81
2022/08/21 09:12:44;;;;;;;13.70;10.52;;;;;;;27.51;69.27;100557.72;5060168;28;20009;-80
2022/08/21 09:15:17;;;;;;;13.57;10.55;;;;;;;27.53;68.88;100552.31;5064742;28;20024;-80
2022/08/21 09:18:06;;;;;;;12.93;10.15;;;;;;;27.50;68.80;100549.72;5071408;28;20017;-79
2022/08/21 09:20:44;;;;;;;11.35;10.13;;;;;;;27.46;69.58;100550.69;5069469;28;20020;-80
2022/08/21 09:23:29;;;;;;;13.57;10.07;;;;;;;27.44;69.35;100550.69;5072109;28;20016;-79
2022/08/21 09:26:12;;;;;;;11.55;10.10;;;;;;;27.29;68.56;100538.47;5072734;28;20497;-77
2022/08/21 09:28:40;;;;;;;11.10;9.80;;;;;;;27.31;68.07;100536.66;5071059;28;20563;-79
2022/08/21 09:31:10;;;;;;;13.85;10.48;;;;;;;27.01;67.50;100496.06;5067632;28;20107;-79
2022/08/21 09:33:37;;;;;;;12.98;10.43;;;;;;;27.17;67.80;100519.88;5070998;28;20064;-80
2022/08/21 09:36:04;;;;;;;12.55;10.35;;;;;;;27.27;67.05;100532.25;5070834;28;20429;-80
2022/08/21 09:38:36;;;;;;;13.35;10.50;;;;;;;27.17;67.02;100519.88;5077538;28;20035;-79
2022/08/21 09:41:09;;;;;;;14.57;10.43;;;;;;;27.25;67.07;100534.06;5070575;28;20020;-79
2022/08/21 09:43:37;;;;;;;15.32;10.05;;;;;;;27.23;67.01;100529.66;5073306;28;20036;-78
2022/08/21 09:46:22;;;;;;;11.70;10.13;;;;;;;27.27;67.32;100534.94;5074545;28;20021;-78
2022/08/21 09:48:50;;;;;;;12.70;10.10;;;;;;;27.24;67.05;100531.41;5072977;28;20052;-79
2022/08/21 09:51:31;;;;;;;14.05;10.63;;;;;;;27.21;66.92;100522.47;5083183;28;20466;-79
2022/08/21 09:54:06;;;;;;;12.43;10.10;;;;;;;27.27;66.74;100520.66;5076447;28;20024;-80
2022/08/21 09:59:20;;;;;;;;;;;;;;;27.25;66.55;100535.88;5082359;28;20202;-79
2022/08/21 10:01:50;;;;;;;13.60;10.07;;;;;;;27.19;66.59;100542.19;5077521;28;19974;-80
2022/08/21 10:04:21;;;;;;;12.75;10.70;;;;;;;27.16;66.92;100540.47;5072198;28;20028;-79
2022/08/21 10:06:46;;;;;;;11.95;9.23;;;;;;;27.18;66.62;100546.69;5071637;28;20020;-79
2022/08/21 10:09:15;;;;;;;11.57;9.50;;;;;;;27.23;66.73;100540.38;5078274;28;20012;-80
2022/08/21 10:12:04;;;;;;;11.32;9.55;;;;;;;27.25;66.93;100534.06;5082153;28;20035;-80
2022/08/21 10:14:44;;;;;;;12.93;9.82;;;;;;;27.26;66.76;100530.47;5064690;28;20063;-80
2022/08/21 10:17:18;;;;;;;12.05;9.45;;;;;;;27.26;66.74;100537.63;5070136;28;20020;-79
2022/08/21 10:19:49;;;;;;;11.73;10.23;;;;;;;27.25;66.51;100539.44;5059492;28;20025;-80
2022/08/21 10:22:35;;;;;;;11.27;9.43;;;;;;;27.25;66.75;100535.88;5069960;28;20028;-78
2022/08/21 10:25:21;;;;;;;11.05;9.85;;;;;;;27.30;66.58;100536.66;5072687;28;20044;-79
2022/08/21 10:28:08;;;;;;;11.10;9.90;;;;;;;27.28;66.06;100525.09;5070088;28;20019;-80
2022/08/21 10:31:10;;;;;;;10.65;9.55;;;;;;;27.30;66.87;100531.31;5082311;28;20024;-80
2022/08/21 10:33:43;;;;;;;11.07;9.60;;;;;;;27.29;67.06;100529.56;5063313;28;20045;-80
2022/08/21 10:36:16;;;;;;;13.25;9.65;;;;;;;27.36;67.35;100541.91;5068816;28;20044;-80
2022/08/21 10:39:13;;;;;;;11.00;9.52;;;;;;;27.31;66.57;100528.59;5069651;28;20052;-80
2022/08/21 10:42:01;;;;;;;10.07;9.00;;;;;;;27.34;66.63;100538.38;5059314;28;20105;-80
2022/08/21 10:44:34;;;;;;;10.65;9.55;;;;;;;27.33;66.34;100536.63;5070800;28;20024;-80
2022/08/21 10:47:09;;;;;;;10.75;9.57;;;;;;;27.33;66.23;100537.50;5070860;28;20055;-80
2022/08/21 10:49:54;;;;;;;11.48;9.48;;;;;;;27.32;66.38;100526.78;5070989;28;20473;-79
2022/08/21 10:52:41;;;;;;;11.70;9.82;;;;;;;27.33;66.60;100526.78;5070372;28;20031;-79
2022/08/21 10:55:13;;;;;;;11.48;9.85;;;;;;;27.31;65.88;100517.00;5058170;28;20027;-80
2022/08/21 10:57:41;;;;;;;10.75;9.65;;;;;;;27.39;67.58;100525.78;5065325;28;20033;-80
2022/08/21 11:00:12;;;;;;;10.45;9.35;;;;;;;27.33;66.56;100517.84;5086635;28;20074;-80
2022/08/21 11:02:49;;;;;;;10.38;9.07;;;;;;;27.37;66.29;100520.44;5070376;28;20428;-80
2022/08/21 11:05:30;;;;;;;13.35;9.23;;;;;;;27.35;66.86;100516.91;5063641;28;20450;-79
2022/08/21 11:08:17;;;;;;;12.30;9.23;;;;;;;27.36;66.31;100515.97;5080136;28;20946;-79
2022/08/21 11:11:08;;;;;;;10.93;9.57;;;;;;;27.35;66.77;100510.66;5066642;28;20028;-79
2022/08/21 11:13:41;;;;;;;10.98;9.20;;;;;;;27.34;66.22;100515.13;5069584;28;20039;-81
2022/08/21 11:16:30;;;;;;;11.05;9.75;;;;;;;27.36;66.16;100515.97;5062959;28;20094;-81
2022/08/21 11:19:02;;;;;;;10.10;9.10;;;;;;;27.36;66.69;100518.66;5068054;28;20025;-79
2022/08/21 11:21:38;;;;;;;12.38;9.80;;;;;;;27.38;65.69;100511.47;5058768;28;20064;-81
2022/08/21 11:24:10;;;;;;;9.98;8.95;;;;;;;27.37;66.10;100498.13;5069547;28;20470;-79
2022/08/21 11:26:41;;;;;;;11.88;9.25;;;;;;;27.37;66.69;100500.81;5070788;28;20509;-81
2022/08/21 11:29:17;;;;;;;10.80;9.23;;;;;;;27.25;65.89;100474.22;5069290;28;20036;-80
2022/08/21 11:32:01;;;;;;;10.88;9.20;;;;;;;27.38;66.67;100497.19;5053463;28;20028;-80